sensor_id;sensor_type;location;lat;lon;timestamp;pressure;altitude;pressure_sealevel;temperature;humidity
2339;BME280;1180;51.438;6.978;2023-05-21T00:01:03;100439.75;;;17.40;81.74
2339;BME280;1180;51.438;6.978;2023-05-21T00:03:30;100439.47;;;17.33;81.75
2339;BME280;1180;51.438;6.978;2023-05-21T00:05:56;100432.00;;;17.09;82.74
2339;BME280;1180;51.438;6.978;2023-05-21T00:08:22;100430.66;;;17.15;83.33
2339;BME280;1180;51.438;6.978;2023-05-21T00:10:47;100425.31;;;17.16;83.03
2339;BME280;1180;51.438;6.978;2023-05-21T00:13:13;100428.66;;;17.28;82.40
2339;BME280;1180;51.438;6.978;2023-05-21T00:15:38;100425.41;;;17.36;82.03
2339;BME280;1180;51.438;6.978;2023-05-21T00:18:04;100420.81;;;17.09;82.96
2339;BME280;1180;51.438;6.978;2023-05-21T00:20:30;100419.34;;;16.95;83.92
2339;BME280;1180;51.438;6.978;2023-05-21T00:22:59;100409.56;;;16.98;83.76
2339;BME280;1180;51.438;6.978;2023-05-21T00:25:27;100414.09;;;16.85;84.15
2339;BME280;1180;51.438;6.978;2023-05-21T00:27:53;100411.50;;;16.85;85.06
2339;BME280;1180;51.438;6.978;2023-05-21T00:30:19;100404.09;;;16.80;84.96
2339;BME280;1180;51.438;6.978;2023-05-21T00:32:44;100406.06;;;16.88;84.47
2339;BME280;1180;51.438;6.978;2023-05-21T00:35:09;100409.88;;;17.05;83.70
2339;BME280;1180;51.438;6.978;2023-05-21T00:37:35;100403.56;;;16.98;83.79
2339;BME280;1180;51.438;6.978;2023-05-21T00:40:00;100409.66;;;16.97;84.02
2339;BME280;1180;51.438;6.978;2023-05-21T00:42:26;100412.78;;;16.91;84.58
2339;BME280;1180;51.438;6.978;2023-05-21T00:44:54;100410.19;;;16.91;84.11
2339;BME280;1180;51.438;6.978;2023-05-21T00:47:20;100401.53;;;16.59;84.95
2339;BME280;1180;51.438;6.978;2023-05-21T00:49:46;100411.31;;;16.34;87.74
2339;BME280;1180;51.438;6.978;2023-05-21T00:52:13;100406.09;;;16.45;87.62
2339;BME280;1180;51.438;6.978;2023-05-21T00:54:39;100395.97;;;16.42;87.14
2339;BME280;1180;51.438;6.978;2023-05-21T00:57:05;100395.06;;;16.53;86.96
2339;BME280;1180;51.438;6.978;2023-05-21T00:59:31;100399.44;;;16.74;86.11
2339;BME280;1180;51.438;6.978;2023-05-21T01:01:57;100394.63;;;16.69;85.51
2339;BME280;1180;51.438;6.978;2023-05-21T01:04:29;100397.88;;;16.62;86.01
2339;BME280;1180;51.438;6.978;2023-05-21T01:06:55;100395.97;;;16.64;85.31
2339;BME280;1180;51.438;6.978;2023-05-21T01:09:23;100403.06;;;16.62;85.99
2339;BME280;1180;51.438;6.978;2023-05-21T01:11:50;100399.25;;;16.66;85.69
2339;BME280;1180;51.438;6.978;2023-05-21T01:14:16;100389.06;;;16.74;85.23
2339;BME280;1180;51.438;6.978;2023-05-21T01:16:44;100393.31;;;16.75;84.86
2339;BME280;1180;51.438;6.978;2023-05-21T01:19:17;100388.06;;;16.65;86.23
2339;BME280;1180;51.438;6.978;2023-05-21T01:21:45;100390.28;;;16.27;86.64
2339;BME280;1180;51.438;6.978;2023-05-21T01:24:13;100390.34;;;16.37;87.44
2339;BME280;1180;51.438;6.978;2023-05-21T01:26:38;100386.69;;;16.40;87.79
2339;BME280;1180;51.438;6.978;2023-05-21T01:29:07;100386.59;;;16.51;86.64
2339;BME280;1180;51.438;6.978;2023-05-21T01:31:47;100385.56;;;16.54;86.18
2339;BME280;1180;51.438;6.978;2023-05-21T01:34:15;100382.88;;;16.44;85.89
2339;BME280;1180;51.438;6.978;2023-05-21T01:36:54;100372.22;;;16.58;86.14
2339;BME280;1180;51.438;6.978;2023-05-21T01:39:29;100372.63;;;16.21;86.79
2339;BME280;1180;51.438;6.978;2023-05-21T01:41:58;100375.00;;;16.24;87.44
2339;BME280;1180;51.438;6.978;2023-05-21T01:44:25;100377.13;;;16.19;87.59
2339;BME280;1180;51.438;6.978;2023-05-21T01:46:52;100372.19;;;16.16;88.10
2339;BME280;1180;51.438;6.978;2023-05-21T01:49:19;100382.69;;;16.14;88.28
2339;BME280;1180;51.438;6.978;2023-05-21T01:51:45;100382.75;;;15.92;89.52
2339;BME280;1180;51.438;6.978;2023-05-21T01:54:10;100373.13;;;16.15;88.77
2339;BME280;1180;51.438;6.978;2023-05-21T01:56:36;100378.47;;;16.35;87.71
2339;BME280;1180;51.438;6.978;2023-05-21T01:59:01;100374.34;;;16.32;87.15
2339;BME280;1180;51.438;6.978;2023-05-21T02:01:27;100373.81;;;16.17;88.71
2339;BME280;1180;51.438;6.978;2023-05-21T02:03:54;100367.16;;;16.36;87.29
2339;BME280;1180;51.438;6.978;2023-05-21T02:06:21;100358.69;;;16.12;89.22
2339;BME280;1180;51.438;6.978;2023-05-21T02:08:46;100358.81;;;16.11;88.59
2339;BME280;1180;51.438;6.978;2023-05-21T02:11:12;100358.50;;;16.25;88.36
2339;BME280;1180;51.438;6.978;2023-05-21T02:13:38;100359.25;;;16.16;88.04
2339;BME280;1180;51.438;6.978;2023-05-21T02:16:07;100355.97;;;16.14;89.16
2339;BME280;1180;51.438;6.978;2023-05-21T02:18:37;100355.44;;;15.99;89.72
2339;BME280;1180;51.438;6.978;2023-05-21T02:21:02;100352.69;;;16.12;89.31
2339;BME280;1180;51.438;6.978;2023-05-21T02:23:28;100354.50;;;16.21;88.39
2339;BME280;1180;51.438;6.978;2023-05-21T02:25:53;100359.91;;;16.29;87.82
2339;BME280;1180;51.438;6.978;2023-05-21T02:28:18;100356.09;;;16.55;86.89
2339;BME280;1180;51.438;6.978;2023-05-21T02:30:45;100356.63;;;16.27;87.26
2339;BME280;1180;51.438;6.978;2023-05-21T02:33:10;100355.00;;;16.15;88.41
2339;BME280;1180;51.438;6.978;2023-05-21T02:35:38;100359.69;;;16.21;88.18
2339;BME280;1180;51.438;6.978;2023-05-21T02:38:03;100351.28;;;16.29;87.57
2339;BME280;1180;51.438;6.978;2023-05-21T02:40:29;100356.22;;;16.11;88.44
2339;BME280;1180;51.438;6.978;2023-05-21T02:42:54;100358.69;;;16.34;87.88
2339;BME280;1180;51.438;6.978;2023-05-21T02:45:19;100354.03;;;16.27;87.19
2339;BME280;1180;51.438;6.978;2023-05-21T02:47:45;100353.38;;;16.35;87.89
2339;BME280;1180;51.438;6.978;2023-05-21T02:50:12;100358.06;;;16.63;86.28
2339;BME280;1180;51.438;6.978;2023-05-21T02:52:38;100355.22;;;16.66;85.90
2339;BME280;1180;51.438;6.978;2023-05-21T02:55:04;100358.34;;;16.69;85.54
2339;BME280;1180;51.438;6.978;2023-05-21T02:57:30;100357.03;;;16.11;88.18
2339;BME280;1180;51.438;6.978;2023-05-21T02:59:55;100350.09;;;16.33;88.20
2339;BME280;1180;51.438;6.978;2023-05-21T03:02:21;100354.56;;;16.52;86.99
2339;BME280;1180;51.438;6.978;2023-05-21T03:04:47;100353.38;;;16.56;86.32
2339;BME280;1180;51.438;6.978;2023-05-21T03:07:13;100353.63;;;16.53;86.57
2339;BME280;1180;51.438;6.978;2023-05-21T03:09:40;100351.47;;;16.37;87.57
2339;BME280;1180;51.438;6.978;2023-05-21T03:12:08;100348.59;;;16.52;86.78
2339;BME280;1180;51.438;6.978;2023-05-21T03:14:33;100353.34;;;16.25;87.84
2339;BME280;1180;51.438;6.978;2023-05-21T03:16:59;100351.63;;;16.36;87.92
2339;BME280;1180;51.438;6.978;2023-05-21T03:19:25;100345.69;;;16.45;87.02
2339;BME280;1180;51.438;6.978;2023-05-21T03:21:50;100339.47;;;16.36;87.88
2339;BME280;1180;51.438;6.978;2023-05-21T03:24:16;100336.97;;;16.46;87.21
2339;BME280;1180;51.438;6.978;2023-05-21T03:26:42;100346.56;;;16.34;87.45
2339;BME280;1180;51.438;6.978;2023-05-21T03:29:08;100344.03;;;16.01;88.97
2339;BME280;1180;51.438;6.978;2023-05-21T03:31:33;100345.66;;;16.02;89.90
2339;BME280;1180;51.438;6.978;2023-05-21T03:33:58;100344.13;;;16.00;89.71
2339;BME280;1180;51.438;6.978;2023-05-21T03:36:24;100341.88;;;16.07;90.26
2339;BME280;1180;51.438;6.978;2023-05-21T03:38:49;100339.56;;;16.25;89.05
2339;BME280;1180;51.438;6.978;2023-05-21T03:41:14;100337.81;;;16.25;88.79
2339;BME280;1180;51.438;6.978;2023-05-21T03:43:40;100335.69;;;16.19;88.22
2339;BME280;1180;51.438;6.978;2023-05-21T03:46:05;100338.16;;;15.99;89.77
2339;BME280;1180;51.438;6.978;2023-05-21T03:48:31;100336.50;;;15.98;90.60
2339;BME280;1180;51.438;6.978;2023-05-21T03:50:56;100339.13;;;16.20;90.29
2339;BME280;1180;51.438;6.978;2023-05-21T03:53:21;100338.44;;;16.06;89.58
2339;BME280;1180;51.438;6.978;2023-05-21T03:55:47;100344.22;;;15.66;92.45
2339;BME280;1180;51.438;6.978;2023-05-21T03:58:21;100343.00;;;15.81;92.14
2339;BME280;1180;51.438;6.978;2023-05-21T04:00:47;100340.03;;;15.97;92.16
2339;BME280;1180;51.438;6.978;2023-05-21T04:03:13;100336.69;;;16.07;91.51
2339;BME280;1180;51.438;6.978;2023-05-21T04:05:42;100345.22;;;15.97;91.15
2339;BME280;1180;51.438;6.978;2023-05-21T04:08:08;100340.03;;;15.86;91.43
2339;BME280;1180;51.438;6.978;2023-05-21T04:10:33;100338.69;;;15.70;92.71
2339;BME280;1180;51.438;6.978;2023-05-21T04:12:59;100340.31;;;15.71;93.87
2339;BME280;1180;51.438;6.978;2023-05-21T04:15:24;100342.75;;;15.84;92.92
2339;BME280;1180;51.438;6.978;2023-05-21T04:17:51;100340.19;;;15.73;92.99
2339;BME280;1180;51.438;6.978;2023-05-21T04:20:17;100334.66;;;15.78;93.94
2339;BME280;1180;51.438;6.978;2023-05-21T04:22:42;100341.13;;;16.16;91.95
2339;BME280;1180;51.438;6.978;2023-05-21T04:25:08;100346.03;;;16.19;90.58
2339;BME280;1180;51.438;6.978;2023-05-21T04:27:35;100343.09;;;16.24;90.44
2339;BME280;1180;51.438;6.978;2023-05-21T04:30:01;100348.34;;;16.12;90.84
2339;BME280;1180;51.438;6.978;2023-05-21T04:32:28;100351.72;;;16.13;91.53
2339;BME280;1180;51.438;6.978;2023-05-21T04:34:55;100351.72;;;16.13;91.17
2339;BME280;1180;51.438;6.978;2023-05-21T04:37:20;100348.53;;;16.21;90.87
2339;BME280;1180;51.438;6.978;2023-05-21T04:39:49;100350.66;;;16.15;91.04
2339;BME280;1180;51.438;6.978;2023-05-21T04:42:14;100351.19;;;16.30;90.80
2339;BME280;1180;51.438;6.978;2023-05-21T04:44:40;100353.38;;;16.14;90.92
2339;BME280;1180;51.438;6.978;2023-05-21T04:47:05;100353.81;;;16.19;91.72
2339;BME280;1180;51.438;6.978;2023-05-21T04:49:32;100351.72;;;16.13;91.02
2339;BME280;1180;51.438;6.978;2023-05-21T04:51:59;100353.78;;;16.30;91.24
2339;BME280;1180;51.438;6.978;2023-05-21T04:54:24;100351.44;;;16.27;91.50
2339;BME280;1180;51.438;6.978;2023-05-21T04:56:50;100343.97;;;16.13;92.37
2339;BME280;1180;51.438;6.978;2023-05-21T04:59:15;100346.97;;;16.29;91.75
2339;BME280;1180;51.438;6.978;2023-05-21T05:01:41;100349.72;;;16.38;91.08
2339;BME280;1180;51.438;6.978;2023-05-21T05:04:08;100349.97;;;16.35;90.36
2339;BME280;1180;51.438;6.978;2023-05-21T05:06:33;100348.16;;;16.46;90.63
2339;BME280;1180;51.438;6.978;2023-05-21T05:08:58;100345.75;;;16.55;89.47
2339;BME280;1180;51.438;6.978;2023-05-21T05:11:24;100350.25;;;16.31;90.64
2339;BME280;1180;51.438;6.978;2023-05-21T05:13:51;100344.56;;;16.38;90.43
2339;BME280;1180;51.438;6.978;2023-05-21T05:16:16;100344.47;;;16.07;91.98
2339;BME280;1180;51.438;6.978;2023-05-21T05:18:43;100352.84;;;15.99;93.09
2339;BME280;1180;51.438;6.978;2023-05-21T05:21:08;100346.00;;;16.09;92.30
2339;BME280;1180;51.438;6.978;2023-05-21T05:23:34;100351.63;;;16.14;92.43
2339;BME280;1180;51.438;6.978;2023-05-21T05:25:59;100348.53;;;16.42;91.92
2339;BME280;1180;51.438;6.978;2023-05-21T05:28:25;100347.69;;;16.20;92.08
2339;BME280;1180;51.438;6.978;2023-05-21T05:30:50;100350.25;;;16.31;92.39
2339;BME280;1180;51.438;6.978;2023-05-21T05:33:15;100346.59;;;16.01;94.05
2339;BME280;1180;51.438;6.978;2023-05-21T05:35:41;100347.50;;;16.12;92.86
2339;BME280;1180;51.438;6.978;2023-05-21T05:38:06;100344.72;;;16.03;93.71
2339;BME280;1180;51.438;6.978;2023-05-21T05:40:33;100343.44;;;15.98;94.63
2339;BME280;1180;51.438;6.978;2023-05-21T05:42:58;100346.81;;;16.31;93.03
2339;BME280;1180;51.438;6.978;2023-05-21T05:45:23;100342.03;;;16.26;93.38
2339;BME280;1180;51.438;6.978;2023-05-21T05:47:50;100338.59;;;16.47;91.85
2339;BME280;1180;51.438;6.978;2023-05-21T05:50:15;100344.53;;;16.16;93.33
2339;BME280;1180;51.438;6.978;2023-05-21T05:52:41;100336.00;;;16.47;93.05
2339;BME280;1180;51.438;6.978;2023-05-21T05:55:07;100338.84;;;16.44;90.76
2339;BME280;1180;51.438;6.978;2023-05-21T05:57:33;100342.59;;;16.30;92.77
2339;BME280;1180;51.438;6.978;2023-05-21T06:00:06;100337.59;;;15.84;94.40
2339;BME280;1180;51.438;6.978;2023-05-21T06:02:33;100339.97;;;16.09;95.64
2339;BME280;1180;51.438;6.978;2023-05-21T06:04:58;100336.63;;;16.18;93.86
2339;BME280;1180;51.438;6.978;2023-05-21T06:07:23;100333.69;;;16.44;93.33
2339;BME280;1180;51.438;6.978;2023-05-21T06:09:49;100328.03;;;16.60;91.61
2339;BME280;1180;51.438;6.978;2023-05-21T06:12:14;100330.56;;;16.50;91.66
2339;BME280;1180;51.438;6.978;2023-05-21T06:14:40;100329.56;;;16.63;91.71
2339;BME280;1180;51.438;6.978;2023-05-21T06:17:06;100317.06;;;16.46;91.92
2339;BME280;1180;51.438;6.978;2023-05-21T06:19:31;100326.59;;;16.46;91.83
2339;BME280;1180;51.438;6.978;2023-05-21T06:21:57;100332.63;;;16.25;94.20
2339;BME280;1180;51.438;6.978;2023-05-21T06:24:22;100326.66;;;16.56;93.88
2339;BME280;1180;51.438;6.978;2023-05-21T06:26:47;100331.00;;;16.86;91.15
2339;BME280;1180;51.438;6.978;2023-05-21T06:29:13;100330.16;;;16.76;91.69
2339;BME280;1180;51.438;6.978;2023-05-21T06:31:38;100325.63;;;16.68;91.30
2339;BME280;1180;51.438;6.978;2023-05-21T06:34:03;100325.28;;;16.30;93.05
2339;BME280;1180;51.438;6.978;2023-05-21T06:36:29;100331.19;;;16.00;95.98
2339;BME280;1180;51.438;6.978;2023-05-21T06:38:56;100329.19;;;16.25;94.54
2339;BME280;1180;51.438;6.978;2023-05-21T06:41:21;100330.22;;;16.12;95.41
2339;BME280;1180;51.438;6.978;2023-05-21T06:43:47;100319.91;;;16.22;95.24
2339;BME280;1180;51.438;6.978;2023-05-21T06:46:12;100314.13;;;16.61;94.06
2339;BME280;1180;51.438;6.978;2023-05-21T06:48:37;100317.56;;;16.62;92.91
2339;BME280;1180;51.438;6.978;2023-05-21T06:51:03;100311.66;;;16.81;92.19
2339;BME280;1180;51.438;6.978;2023-05-21T06:53:28;100312.81;;;16.67;92.89
2339;BME280;1180;51.438;6.978;2023-05-21T06:55:55;100307.84;;;16.85;91.83
2339;BME280;1180;51.438;6.978;2023-05-21T06:58:20;100304.78;;;17.01;91.73
2339;BME280;1180;51.438;6.978;2023-05-21T07:00:46;100306.63;;;16.89;92.28
2339;BME280;1180;51.438;6.978;2023-05-21T07:03:12;100311.84;;;16.68;92.67
2339;BME280;1180;51.438;6.978;2023-05-21T07:05:37;100305.13;;;16.96;91.13
2339;BME280;1180;51.438;6.978;2023-05-21T07:08:04;100310.31;;;16.96;91.76
2339;BME280;1180;51.438;6.978;2023-05-21T07:10:29;100310.91;;;17.00;91.67
2339;BME280;1180;51.438;6.978;2023-05-21T07:12:54;100311.75;;;17.10;90.97
2339;BME280;1180;51.438;6.978;2023-05-21T07:15:20;100308.97;;;17.33;91.01
2339;BME280;1180;51.438;6.978;2023-05-21T07:17:45;100310.63;;;17.64;89.54
2339;BME280;1180;51.438;6.978;2023-05-21T07:20:11;100303.13;;;17.41;88.74
2339;BME280;1180;51.438;6.978;2023-05-21T07:22:37;100310.28;;;17.17;90.04
2339;BME280;1180;51.438;6.978;2023-05-21T07:25:04;100306.81;;;17.48;89.43
2339;BME280;1180;51.438;6.978;2023-05-21T07:27:30;100309.50;;;17.37;90.13
2339;BME280;1180;51.438;6.978;2023-05-21T07:29:55;100309.50;;;17.46;90.27
2339;BME280;1180;51.438;6.978;2023-05-21T07:32:20;100318.25;;;17.45;89.20
2339;BME280;1180;51.438;6.978;2023-05-21T07:34:45;100305.72;;;17.70;89.31
2339;BME280;1180;51.438;6.978;2023-05-21T07:37:11;100305.44;;;17.83;89.31
2339;BME280;1180;51.438;6.978;2023-05-21T07:39:38;100294.78;;;18.16;88.36
2339;BME280;1180;51.438;6.978;2023-05-21T07:42:03;100297.06;;;18.39;86.05
2339;BME280;1180;51.438;6.978;2023-05-21T07:44:28;100303.22;;;18.38;84.20
2339;BME280;1180;51.438;6.978;2023-05-21T07:46:54;100300.25;;;17.73;87.49
2339;BME280;1180;51.438;6.978;2023-05-21T07:49:20;100295.06;;;17.93;86.96
2339;BME280;1180;51.438;6.978;2023-05-21T07:51:45;100293.00;;;17.47;89.32
2339;BME280;1180;51.438;6.978;2023-05-21T07:54:11;100297.63;;;17.54;90.83
2339;BME280;1180;51.438;6.978;2023-05-21T07:56:36;100304.09;;;18.09;89.01
2339;BME280;1180;51.438;6.978;2023-05-21T07:59:02;100308.31;;;18.19;87.10
2339;BME280;1180;51.438;6.978;2023-05-21T08:01:28;100310.06;;;18.19;87.50
2339;BME280;1180;51.438;6.978;2023-05-21T08:03:54;100308.22;;;18.59;86.44
2339;BME280;1180;51.438;6.978;2023-05-21T08:06:19;100302.03;;;18.70;84.87
2339;BME280;1180;51.438;6.978;2023-05-21T08:08:46;100306.44;;;18.59;84.77
2339;BME280;1180;51.438;6.978;2023-05-21T08:11:12;100305.94;;;18.36;85.75
2339;BME280;1180;51.438;6.978;2023-05-21T08:13:37;100312.69;;;18.67;85.14
2339;BME280;1180;51.438;6.978;2023-05-21T08:16:04;100315.47;;;18.55;85.44
2339;BME280;1180;51.438;6.978;2023-05-21T08:18:30;100323.88;;;18.77;85.87
2339;BME280;1180;51.438;6.978;2023-05-21T08:20:56;100318.72;;;18.67;84.00
2339;BME280;1180;51.438;6.978;2023-05-21T08:23:23;100324.56;;;18.22;86.96
2339;BME280;1180;51.438;6.978;2023-05-21T08:25:49;100325.09;;;18.35;86.55
2339;BME280;1180;51.438;6.978;2023-05-21T08:28:14;100331.81;;;17.98;88.20
2339;BME280;1180;51.438;6.978;2023-05-21T08:30:40;100343.72;;;18.30;88.94
2339;BME280;1180;51.438;6.978;2023-05-21T08:33:06;100342.97;;;18.48;86.46
2339;BME280;1180;51.438;6.978;2023-05-21T08:35:31;100341.69;;;18.72;86.15
2339;BME280;1180;51.438;6.978;2023-05-21T08:37:57;100338.44;;;18.50;85.73
2339;BME280;1180;51.438;6.978;2023-05-21T08:40:23;100348.72;;;18.52;87.73
2339;BME280;1180;51.438;6.978;2023-05-21T08:42:50;100340.44;;;18.76;86.25
2339;BME280;1180;51.438;6.978;2023-05-21T08:45:20;100342.00;;;19.07;85.87
2339;BME280;1180;51.438;6.978;2023-05-21T08:47:45;100341.25;;;19.42;85.02
2339;BME280;1180;51.438;6.978;2023-05-21T08:50:13;100339.84;;;19.66;83.00
2339;BME280;1180;51.438;6.978;2023-05-21T08:52:40;100335.31;;;19.86;81.48
2339;BME280;1180;51.438;6.978;2023-05-21T08:55:07;100342.41;;;19.94;80.90
2339;BME280;1180;51.438;6.978;2023-05-21T08:57:33;100324.72;;;19.88;81.37
2339;BME280;1180;51.438;6.978;2023-05-21T08:59:59;100331.00;;;20.13;79.80
2339;BME280;1180;51.438;6.978;2023-05-21T09:02:26;100331.34;;;20.18;78.88
2339;BME280;1180;51.438;6.978;2023-05-21T09:04:52;100324.59;;;19.89;80.50
2339;BME280;1180;51.438;6.978;2023-05-21T09:07:22;100320.19;;;20.26;80.92
2339;BME280;1180;51.438;6.978;2023-05-21T09:10:07;100317.50;;;20.18;78.98
2339;BME280;1180;51.438;6.978;2023-05-21T09:12:34;100322.41;;;20.21;79.34
2339;BME280;1180;51.438;6.978;2023-05-21T09:15:00;100326.44;;;20.15;79.84
2339;BME280;1180;51.438;6.978;2023-05-21T09:17:25;100323.03;;;19.97;80.80
2339;BME280;1180;51.438;6.978;2023-05-21T09:22:44;100310.75;;;19.89;81.26
2339;BME280;1180;51.438;6.978;2023-05-21T09:25:12;100305.34;;;19.82;81.59
2339;BME280;1180;51.438;6.978;2023-05-21T09:27:38;100299.00;;;19.67;82.22
2339;BME280;1180;51.438;6.978;2023-05-21T09:30:09;100303.44;;;20.11;80.56
2339;BME280;1180;51.438;6.978;2023-05-21T09:32:35;100299.16;;;19.83;81.20
2339;BME280;1180;51.438;6.978;2023-05-21T09:35:14;100292.63;;;19.97;81.40
2339;BME280;1180;51.438;6.978;2023-05-21T09:37:40;100287.38;;;20.15;79.24
2339;BME280;1180;51.438;6.978;2023-05-21T09:40:15;100290.06;;;20.05;80.80
2339;BME280;1180;51.438;6.978;2023-05-21T09:42:46;100278.53;;;20.34;80.41
2339;BME280;1180;51.438;6.978;2023-05-21T09:45:12;100281.75;;;20.63;78.20
2339;BME280;1180;51.438;6.978;2023-05-21T09:47:42;100279.50;;;20.07;81.06
2339;BME280;1180;51.438;6.978;2023-05-21T09:50:10;100274.69;;;20.20;80.24
2339;BME280;1180;51.438;6.978;2023-05-21T09:52:37;100280.13;;;20.27;80.87
2339;BME280;1180;51.438;6.978;2023-05-21T09:55:06;100282.47;;;20.73;80.27
2339;BME280;1180;51.438;6.978;2023-05-21T09:57:39;100274.25;;;21.03;79.20
2339;BME280;1180;51.438;6.978;2023-05-21T10:00:06;100270.38;;;21.15;76.54
2339;BME280;1180;51.438;6.978;2023-05-21T10:02:36;100264.69;;;21.20;77.01
2339;BME280;1180;51.438;6.978;2023-05-21T10:05:04;100264.91;;;21.68;76.54
2339;BME280;1180;51.438;6.978;2023-05-21T10:07:34;100273.38;;;21.78;73.43
2339;BME280;1180;51.438;6.978;2023-05-21T10:10:02;100262.09;;;21.45;75.51
2339;BME280;1180;51.438;6.978;2023-05-21T10:12:29;100268.66;;;21.66;75.97
2339;BME280;1180;51.438;6.978;2023-05-21T10:15:02;100265.72;;;21.77;73.30
2339;BME280;1180;51.438;6.978;2023-05-21T10:17:31;100264.38;;;22.14;73.53
2339;BME280;1180;51.438;6.978;2023-05-21T10:19:58;100254.84;;;22.38;72.83
2339;BME280;1180;51.438;6.978;2023-05-21T10:22:24;100255.34;;;22.33;72.83
2339;BME280;1180;51.438;6.978;2023-05-21T10:24:51;100255.25;;;22.10;72.47
2339;BME280;1180;51.438;6.978;2023-05-21T10:27:17;100249.50;;;22.15;73.49
2339;BME280;1180;51.438;6.978;2023-05-21T10:29:44;100251.53;;;21.88;73.49
2339;BME280;1180;51.438;6.978;2023-05-21T10:32:14;100255.59;;;21.90;74.31
2339;BME280;1180;51.438;6.978;2023-05-21T10:34:42;100251.81;;;21.35;75.03
2339;BME280;1180;51.438;6.978;2023-05-21T10:37:08;100250.81;;;21.19;76.62
2339;BME280;1180;51.438;6.978;2023-05-21T10:39:35;100251.38;;;21.73;75.61
2339;BME280;1180;51.438;6.978;2023-05-21T10:48:42;100230.94;;;21.43;75.28
2339;BME280;1180;51.438;6.978;2023-05-21T10:56:51;100233.38;;;21.95;74.63
2339;BME280;1180;51.438;6.978;2023-05-21T11:02:00;100227.47;;;22.09;74.16
2339;BME280;1180;51.438;6.978;2023-05-21T11:04:26;100232.34;;;22.20;72.64
2339;BME280;1180;51.438;6.978;2023-05-21T11:06:52;100223.34;;;22.23;74.06
2339;BME280;1180;51.438;6.978;2023-05-21T11:09:18;100236.97;;;22.58;73.23
2339;BME280;1180;51.438;6.978;2023-05-21T11:11:50;100228.09;;;22.68;72.98
2339;BME280;1180;51.438;6.978;2023-05-21T11:14:32;100229.63;;;22.85;71.69
2339;BME280;1180;51.438;6.978;2023-05-21T11:19:44;100227.59;;;22.64;71.55
2339;BME280;1180;51.438;6.978;2023-05-21T11:22:27;100231.00;;;23.04;72.04
2339;BME280;1180;51.438;6.978;2023-05-21T11:24:54;100221.56;;;23.18;69.38
2339;BME280;1180;51.438;6.978;2023-05-21T11:29:56;100225.06;;;22.87;70.38
2339;BME280;1180;51.438;6.978;2023-05-21T11:32:21;100221.63;;;23.10;70.45
2339;BME280;1180;51.438;6.978;2023-05-21T11:34:48;100221.81;;;23.08;70.26
2339;BME280;1180;51.438;6.978;2023-05-21T11:39:43;100223.91;;;22.58;72.33
2339;BME280;1180;51.438;6.978;2023-05-21T11:42:09;100230.22;;;22.96;70.67
2339;BME280;1180;51.438;6.978;2023-05-21T11:44:44;100231.31;;;22.78;71.63
2339;BME280;1180;51.438;6.978;2023-05-21T11:47:12;100232.44;;;23.07;71.01
2339;BME280;1180;51.438;6.978;2023-05-21T11:49:38;100228.78;;;23.16;69.64
2339;BME280;1180;51.438;6.978;2023-05-21T11:52:06;100230.13;;;23.59;70.02
2339;BME280;1180;51.438;6.978;2023-05-21T11:54:32;100240.28;;;23.77;68.65
2339;BME280;1180;51.438;6.978;2023-05-21T11:57:05;100235.75;;;23.71;68.52
2339;BME280;1180;51.438;6.978;2023-05-21T11:59:32;100240.09;;;23.78;69.34
2339;BME280;1180;51.438;6.978;2023-05-21T12:01:58;100238.22;;;23.49;68.31
2339;BME280;1180;51.438;6.978;2023-05-21T12:04:34;100231.31;;;23.01;69.64
2339;BME280;1180;51.438;6.978;2023-05-21T12:07:07;100232.13;;;22.78;73.26
2339;BME280;1180;51.438;6.978;2023-05-21T12:09:47;100230.06;;;23.20;71.36
2339;BME280;1180;51.438;6.978;2023-05-21T12:12:15;100229.03;;;23.53;70.75
2339;BME280;1180;51.438;6.978;2023-05-21T12:14:48;100223.66;;;24.00;70.01
2339;BME280;1180;51.438;6.978;2023-05-21T12:17:15;100231.38;;;24.01;67.63
2339;BME280;1180;51.438;6.978;2023-05-21T12:19:41;100232.28;;;24.08;68.15
2339;BME280;1180;51.438;6.978;2023-05-21T12:22:07;100218.06;;;24.33;67.96
2339;BME280;1180;51.438;6.978;2023-05-21T12:24:34;100220.03;;;23.86;67.84
2339;BME280;1180;51.438;6.978;2023-05-21T12:27:01;100212.28;;;23.39;69.09
2339;BME280;1180;51.438;6.978;2023-05-21T12:29:29;100211.78;;;23.59;69.96
2339;BME280;1180;51.438;6.978;2023-05-21T12:31:58;100210.66;;;23.38;68.64
2339;BME280;1180;51.438;6.978;2023-05-21T12:37:05;100206.69;;;22.96;71.77
2339;BME280;1180;51.438;6.978;2023-05-21T12:39:36;100202.91;;;23.21;71.82
2339;BME280;1180;51.438;6.978;2023-05-21T12:42:01;100212.66;;;23.51;70.16
2339;BME280;1180;51.438;6.978;2023-05-21T12:44:30;100209.44;;;23.26;69.72
2339;BME280;1180;51.438;6.978;2023-05-21T12:46:56;100205.75;;;22.88;71.99
2339;BME280;1180;51.438;6.978;2023-05-21T12:49:42;100207.47;;;23.19;72.36
2339;BME280;1180;51.438;6.978;2023-05-21T12:52:19;100211.88;;;23.27;70.81
2339;BME280;1180;51.438;6.978;2023-05-21T12:54:49;100203.44;;;23.17;71.11
2339;BME280;1180;51.438;6.978;2023-05-21T12:57:19;100200.44;;;23.20;72.42
2339;BME280;1180;51.438;6.978;2023-05-21T12:59:54;100211.22;;;23.48;71.05
2339;BME280;1180;51.438;6.978;2023-05-21T13:04:46;100203.53;;;23.00;72.04
2339;BME280;1180;51.438;6.978;2023-05-21T13:07:13;100195.22;;;23.20;73.26
2339;BME280;1180;51.438;6.978;2023-05-21T13:09:40;100194.16;;;23.06;72.21
2339;BME280;1180;51.438;6.978;2023-05-21T13:12:06;100202.47;;;23.56;72.49
2339;BME280;1180;51.438;6.978;2023-05-21T13:14:31;100206.38;;;23.75;69.34
2339;BME280;1180;51.438;6.978;2023-05-21T13:16:57;100193.59;;;24.11;68.34
2339;BME280;1180;51.438;6.978;2023-05-21T13:19:22;100193.59;;;24.11;68.58
2339;BME280;1180;51.438;6.978;2023-05-21T13:21:48;100192.13;;;23.93;68.98
2339;BME280;1180;51.438;6.978;2023-05-21T13:24:13;100185.91;;;24.24;68.57
2339;BME280;1180;51.438;6.978;2023-05-21T13:26:38;100184.13;;;24.61;67.08
2339;BME280;1180;51.438;6.978;2023-05-21T13:29:04;100178.06;;;24.09;67.94
2339;BME280;1180;51.438;6.978;2023-05-21T13:31:29;100176.22;;;24.25;68.47
2339;BME280;1180;51.438;6.978;2023-05-21T13:33:54;100169.38;;;24.08;69.36
2339;BME280;1180;51.438;6.978;2023-05-21T13:36:20;100177.47;;;24.29;68.64
2339;BME280;1180;51.438;6.978;2023-05-21T13:38:45;100173.63;;;24.09;67.83